createdAt,value
2022-08-27T00:00:35.330Z,9.35
2022-08-27T00:03:03.538Z,9.70
2022-08-27T00:05:31.812Z,19.15
2022-08-27T00:07:58.676Z,14.13
2022-08-27T00:10:27.478Z,14.27
2022-08-27T00:12:56.291Z,10.00
2022-08-27T00:15:25.427Z,9.50
2022-08-27T00:17:53.766Z,10.85
2022-08-27T00:20:23.640Z,8.75
2022-08-27T00:22:50.624Z,11.10
2022-08-27T00:25:17.813Z,9.52
2022-08-27T00:27:44.895Z,9.10
2022-08-27T00:30:14.871Z,10.20
2022-08-27T00:32:43.121Z,10.43
2022-08-27T00:35:11.225Z,10.30
2022-08-27T00:37:39.519Z,12.57
2022-08-27T00:40:08.930Z,12.77
2022-08-27T00:42:35.410Z,11.30
2022-08-27T00:45:03.368Z,9.93
2022-08-27T00:47:34.233Z,10.55
2022-08-27T00:50:05.754Z,11.07
2022-08-27T00:52:43.812Z,9.38
2022-08-27T00:55:27.683Z,9.80
2022-08-27T00:58:25.678Z,10.70
2022-08-27T01:00:52.707Z,10.70
2022-08-27T01:03:19.803Z,10.93
2022-08-27T01:05:48.287Z,11.18
2022-08-27T01:08:23.274Z,10.85
2022-08-27T01:10:51.063Z,10.05
2022-08-27T01:13:20.557Z,10.60
2022-08-27T01:16:09.111Z,11.45
2022-08-27T01:18:37.616Z,10.55
2022-08-27T01:21:21.340Z,10.52
2022-08-27T01:26:21.418Z,10.57
2022-08-27T01:28:48.766Z,10.15
2022-08-27T01:31:15.770Z,9.35
2022-08-27T01:33:55.121Z,10.07
2022-08-27T01:36:22.079Z,9.90
2022-08-27T01:38:48.502Z,10.57
2022-08-27T01:41:15.153Z,9.45
2022-08-27T01:43:42.587Z,10.50
2022-08-27T01:46:09.705Z,9.75
2022-08-27T01:48:37.589Z,10.52
2022-08-27T01:51:04.045Z,10.27
2022-08-27T01:53:30.994Z,9.40
2022-08-27T01:55:57.469Z,9.70
2022-08-27T01:58:28.445Z,10.02
2022-08-27T02:00:58.061Z,9.38
2022-08-27T02:03:25.648Z,9.52
2022-08-27T02:05:52.348Z,9.82
2022-08-27T02:08:19.412Z,9.77
2022-08-27T02:10:48.324Z,13.60
2022-08-27T02:13:15.938Z,12.85
2022-08-27T02:15:43.780Z,9.63
2022-08-27T02:18:12.005Z,7.50
2022-08-27T02:20:45.802Z,7.47
2022-08-27T02:23:12.804Z,7.40
2022-08-27T02:25:40.286Z,6.82
2022-08-27T02:28:07.201Z,7.53
2022-08-27T02:30:35.122Z,14.32
2022-08-27T02:33:02.888Z,7.07
2022-08-27T02:35:30.920Z,6.95
2022-08-27T02:37:58.545Z,6.38
2022-08-27T02:40:26.134Z,6.30
2022-08-27T02:42:53.608Z,6.03
2022-08-27T02:45:20.843Z,5.95
2022-08-27T02:47:48.624Z,5.70
2022-08-27T02:50:16.408Z,5.63
2022-08-27T02:52:45.274Z,5.75
2022-08-27T02:55:14.418Z,5.82
2022-08-27T02:57:44.612Z,6.55
2022-08-27T03:00:13.981Z,6.20
2022-08-27T03:02:40.443Z,6.40
2022-08-27T03:05:09.558Z,5.65
2022-08-27T03:07:37.266Z,5.50
2022-08-27T03:10:05.107Z,5.53
2022-08-27T03:12:32.070Z,6.22
2022-08-27T03:14:58.555Z,5.65
2022-08-27T03:17:43.475Z,5.95
2022-08-27T03:20:12.193Z,5.60
2022-08-27T03:22:40.180Z,5.82
2022-08-27T03:25:07.768Z,6.05
2022-08-27T03:27:34.241Z,6.28
2022-08-27T03:30:05.857Z,6.03
2022-08-27T03:32:32.880Z,6.18
2022-08-27T03:35:00.297Z,5.90
2022-08-27T03:37:26.963Z,6.32
2022-08-27T03:39:53.659Z,6.20
2022-08-27T03:42:20.483Z,5.65
2022-08-27T03:44:47.603Z,5.40
2022-08-27T03:47:14.576Z,6.32
2022-08-27T03:49:41.511Z,7.15
2022-08-27T03:52:08.836Z,6.05
2022-08-27T03:54:37.481Z,7.68
2022-08-27T03:57:05.906Z,7.45
2022-08-27T03:59:33.301Z,7.93
2022-08-27T04:02:01.692Z,7.05
2022-08-27T04:04:28.444Z,7.38
2022-08-27T04:06:58.919Z,7.20
2022-08-27T04:09:25.816Z,7.57
2022-08-27T04:11:53.137Z,7.57
2022-08-27T04:14:25.416Z,7.43
2022-08-27T04:16:54.824Z,8.20
2022-08-27T04:19:26.913Z,8.15
2022-08-27T04:21:54.660Z,7.80
2022-08-27T04:24:21.641Z,8.73
2022-08-27T04:26:48.553Z,8.63
2022-08-27T04:29:14.941Z,9.60
2022-08-27T04:31:41.436Z,8.27
2022-08-27T04:34:07.920Z,9.13
2022-08-27T04:36:34.661Z,9.13
2022-08-27T04:39:03.221Z,9.18
2022-08-27T04:41:33.350Z,9.60
2022-08-27T04:44:04.147Z,9.55
2022-08-27T04:46:33.112Z,9.80
2022-08-27T04:49:10.038Z,10.52
2022-08-27T04:51:38.443Z,10.38
2022-08-27T04:54:09.070Z,9.68
2022-08-27T04:56:37.131Z,11.38
2022-08-27T04:59:06.311Z,10.18
2022-08-27T05:01:32.968Z,11.05
2022-08-27T05:03:59.916Z,10.85
2022-08-27T05:06:27.274Z,10.57
2022-08-27T05:08:55.135Z,9.68
2022-08-27T05:11:23.910Z,10.40
2022-08-27T05:13:50.433Z,11.95
2022-08-27T05:16:20.994Z,11.00
2022-08-27T05:18:50.273Z,10.63
2022-08-27T05:21:23.158Z,10.75
2022-08-27T05:23:50.880Z,11.20
2022-08-27T05:26:18.329Z,10.70
2022-08-27T05:28:44.772Z,11.00
2022-08-27T05:31:13.493Z,10.45
2022-08-27T05:33:41.520Z,10.27
2022-08-27T05:36:15.906Z,10.88
2022-08-27T05:38:43.214Z,10.40
2022-08-27T05:41:13.796Z,10.50
2022-08-27T05:43:41.434Z,9.82
2022-08-27T05:46:12.085Z,9.85
2022-08-27T05:48:40.138Z,9.45
2022-08-27T05:51:09.515Z,9.73
2022-08-27T05:53:36.827Z,10.10
2022-08-27T05:56:03.564Z,10.50
2022-08-27T05:58:48.701Z,10.40
2022-08-27T06:01:20.049Z,13.00
2022-08-27T06:03:46.489Z,11.40
2022-08-27T06:06:12.882Z,10.35
2022-08-27T06:08:39.315Z,11.27
2022-08-27T06:11:07.014Z,10.07
2022-08-27T06:13:35.510Z,9.85
2022-08-27T06:16:08.791Z,10.60
2022-08-27T06:18:37.366Z,10.97
2022-08-27T06:21:04.297Z,10.77
2022-08-27T06:23:30.801Z,10.68
2022-08-27T06:25:58.299Z,9.88
2022-08-27T06:28:29.792Z,9.80
2022-08-27T06:31:11.989Z,9.90
2022-08-27T06:33:40.098Z,9.93
2022-08-27T06:36:10.854Z,8.88
2022-08-27T06:38:38.016Z,8.85
2022-08-27T06:41:07.093Z,8.65
2022-08-27T06:43:43.716Z,8.60
2022-08-27T06:46:14.242Z,8.95
2022-08-27T06:48:41.106Z,8.40
2022-08-27T06:51:09.995Z,8.63
2022-08-27T06:53:37.046Z,8.13
2022-08-27T06:56:05.208Z,7.93
2022-08-27T06:58:31.974Z,7.82
2022-08-27T07:00:58.763Z,8.23
2022-08-27T07:03:25.129Z,7.25
2022-08-27T07:05:51.605Z,8.30
2022-08-27T07:08:18.178Z,7.45
2022-08-27T07:10:45.492Z,7.55
2022-08-27T07:13:12.979Z,7.22
2022-08-27T07:15:39.823Z,8.27
2022-08-27T07:18:07.855Z,7.15
2022-08-27T07:20:41.222Z,7.72
2022-08-27T07:23:11.075Z,7.97
2022-08-27T07:25:41.826Z,8.18
2022-08-27T07:28:08.793Z,8.05
2022-08-27T07:30:37.560Z,7.07
2022-08-27T07:33:05.534Z,7.35
2022-08-27T07:35:32.566Z,8.60
2022-08-27T07:37:59.345Z,14.70
2022-08-27T07:40:26.485Z,7.22
2022-08-27T07:43:11.645Z,7.00
2022-08-27T07:45:46.690Z,6.97
2022-08-27T07:48:13.481Z,7.88
2022-08-27T07:50:39.900Z,8.70
2022-08-27T07:53:07.646Z,8.52
2022-08-27T07:55:38.498Z,9.05
2022-08-27T07:58:05.922Z,7.82
2022-08-27T08:00:37.633Z,8.90
2022-08-27T08:03:04.445Z,9.07
2022-08-27T08:05:31.121Z,8.45
2022-08-27T08:07:58.361Z,8.85
2022-08-27T08:10:25.214Z,9.13
2022-08-27T08:12:51.859Z,8.60
2022-08-27T08:15:19.819Z,8.25
2022-08-27T08:17:46.676Z,6.70
2022-08-27T08:20:24.030Z,6.35
2022-08-27T08:22:57.734Z,6.00
2022-08-27T08:25:24.681Z,6.15
2022-08-27T08:27:51.335Z,6.38
2022-08-27T08:30:18.069Z,5.93
2022-08-27T08:32:45.347Z,6.55
2022-08-27T08:35:12.308Z,6.35
2022-08-27T08:37:38.990Z,7.03
2022-08-27T08:40:06.399Z,5.82
2022-08-27T08:42:39.480Z,6.22
2022-08-27T08:45:08.064Z,6.22
2022-08-27T08:47:49.339Z,6.70
2022-08-27T08:50:23.146Z,6.40
2022-08-27T08:53:09.425Z,6.70
2022-08-27T08:55:48.115Z,6.32
2022-08-27T08:58:44.592Z,6.32
2022-08-27T09:01:14.546Z,6.70
2022-08-27T09:03:47.221Z,6.60
2022-08-27T09:06:25.798Z,6.50
2022-08-27T09:08:52.904Z,5.25
2022-08-27T09:11:24.143Z,5.43
2022-08-27T09:14:24.836Z,5.75
2022-08-27T09:16:56.373Z,5.22
2022-08-27T09:19:24.660Z,5.47
2022-08-27T09:21:59.684Z,4.85
2022-08-27T09:24:34.945Z,4.45
2022-08-27T09:27:01.653Z,5.53
2022-08-27T09:29:29.873Z,5.35
2022-08-27T09:32:09.043Z,5.30
2022-08-27T09:34:41.358Z,5.65
2022-08-27T09:37:23.030Z,7.55
2022-08-27T09:40:23.034Z,5.25
2022-08-27T09:42:56.411Z,4.22
2022-08-27T09:45:28.484Z,4.93
2022-08-27T09:48:07.594Z,4.45
2022-08-27T09:50:46.567Z,4.63
2022-08-27T09:53:35.944Z,4.53
2022-08-27T09:56:04.925Z,4.97
2022-08-27T09:58:46.965Z,5.07
2022-08-27T10:01:20.203Z,4.75
2022-08-27T10:03:47.978Z,6.35
2022-08-27T10:06:14.433Z,5.10
2022-08-27T10:08:49.097Z,4.55
2022-08-27T10:11:23.923Z,4.07
2022-08-27T10:14:03.919Z,4.40
2022-08-27T10:16:33.513Z,4.50
2022-08-27T10:19:19.113Z,3.78
2022-08-27T10:22:00.264Z,4.50
2022-08-27T10:24:51.606Z,4.25
2022-08-27T10:27:24.602Z,4.18
2022-08-27T10:30:10.475Z,4.57
2022-08-27T10:33:10.724Z,5.03
2022-08-27T10:35:47.883Z,4.00
2022-08-27T10:38:42.402Z,4.15
2022-08-27T10:41:22.428Z,3.70
2022-08-27T10:44:17.876Z,4.22
2022-08-27T10:47:02.481Z,5.03
2022-08-27T10:49:56.956Z,4.80
2022-08-27T10:52:38.546Z,5.28
2022-08-27T10:55:21.929Z,4.53
2022-08-27T10:58:07.491Z,4.25
2022-08-27T11:00:46.419Z,4.60
2022-08-27T11:03:20.329Z,5.18
2022-08-27T11:05:50.360Z,6.22
2022-08-27T11:08:41.390Z,5.40
2022-08-27T11:11:57.055Z,6.07
2022-08-27T11:14:00.987Z,6.20
2022-08-27T11:16:37.340Z,5.57
2022-08-27T11:19:23.254Z,6.22
2022-08-27T11:22:12.187Z,5.90
2022-08-27T11:24:51.038Z,6.07
2022-08-27T11:27:23.263Z,6.40
2022-08-27T11:30:00.140Z,6.55
2022-08-27T11:32:55.761Z,6.20
2022-08-27T11:35:34.774Z,6.75
2022-08-27T11:38:17.396Z,7.22
2022-08-27T11:40:55.742Z,6.05
2022-08-27T11:43:26.555Z,6.32
2022-08-27T11:46:25.254Z,5.60
2022-08-27T11:49:01.742Z,6.75
2022-08-27T11:51:37.092Z,6.10
2022-08-27T11:54:10.735Z,6.93
2022-08-27T11:56:43.046Z,5.95
2022-08-27T11:59:20.698Z,5.95
2022-08-27T12:01:48.484Z,6.65
2022-08-27T12:04:35.351Z,6.20
2022-08-27T12:07:04.623Z,6.50
2022-08-27T12:09:58.078Z,6.32
2022-08-27T12:12:44.155Z,10.43
2022-08-27T12:15:18.678Z,6.22
2022-08-27T12:17:52.117Z,6.07
2022-08-27T12:23:44.013Z,6.00
2022-08-27T12:26:25.449Z,6.15
2022-08-27T12:29:24.045Z,5.95
2022-08-27T12:31:54.533Z,8.68
2022-08-27T12:34:25.391Z,6.40
2022-08-27T12:36:54.629Z,6.00
2022-08-27T12:39:28.785Z,5.80
2022-08-27T12:41:56.232Z,6.82
2022-08-27T12:44:28.849Z,6.32
2022-08-27T12:47:04.054Z,5.67
2022-08-27T12:49:41.467Z,5.72
2022-08-27T12:52:52.359Z,6.60
2022-08-27T12:55:49.556Z,5.97
2022-08-27T12:58:43.673Z,6.72
2022-08-27T13:01:13.459Z,5.97
2022-08-27T13:03:47.254Z,6.28
2022-08-27T13:06:33.093Z,6.50
2022-08-27T13:09:03.671Z,8.18
2022-08-27T13:11:44.230Z,5.57
2022-08-27T13:14:14.516Z,5.85
2022-08-27T13:16:52.091Z,5.60
2022-08-27T13:19:51.238Z,5.35
2022-08-27T13:22:29.030Z,6.18
2022-08-27T13:24:56.527Z,5.88
2022-08-27T13:27:29.465Z,5.65
2022-08-27T13:29:58.677Z,5.60
2022-08-27T13:32:29.713Z,5.50
2022-08-27T13:34:58.412Z,6.18
2022-08-27T13:37:34.755Z,6.20
2022-08-27T13:40:01.302Z,7.15
2022-08-27T13:42:27.807Z,6.20
2022-08-27T13:45:02.758Z,6.85
2022-08-27T13:47:30.656Z,6.45
2022-08-27T13:50:12.856Z,6.45
2022-08-27T13:53:02.526Z,7.07
2022-08-27T13:55:32.757Z,11.88
2022-08-27T13:58:00.432Z,6.07
2022-08-27T14:00:31.956Z,6.30
2022-08-27T14:03:00.834Z,6.93
2022-08-27T14:05:31.973Z,6.28
2022-08-27T14:08:12.426Z,7.70
2022-08-27T14:10:47.579Z,6.03
2022-08-27T14:13:17.418Z,8.48
2022-08-27T14:15:47.985Z,6.30
2022-08-27T14:18:48.140Z,6.57
2022-08-27T14:21:13.075Z,6.38
2022-08-27T14:23:39.655Z,7.63
2022-08-27T14:26:07.870Z,5.63
2022-08-27T14:28:34.464Z,11.70
2022-08-27T14:31:00.972Z,5.97
2022-08-27T14:33:27.908Z,6.38
2022-08-27T14:35:54.520Z,6.13
2022-08-27T14:38:23.453Z,8.80
2022-08-27T14:40:54.639Z,7.05
2022-08-27T14:43:22.924Z,6.57
2022-08-27T14:45:51.532Z,8.07
2022-08-27T14:48:28.557Z,7.90
2022-08-27T14:50:57.595Z,7.15
2022-08-27T14:53:24.774Z,6.70
2022-08-27T14:55:52.204Z,7.05
2022-08-27T14:58:21.097Z,7.28
2022-08-27T15:00:49.471Z,7.25
2022-08-27T15:03:15.911Z,6.50
2022-08-27T15:05:43.046Z,6.55
2022-08-27T15:08:12.915Z,8.02
2022-08-27T15:10:40.287Z,8.13
2022-08-27T15:13:06.725Z,7.10
2022-08-27T15:15:34.328Z,6.88
2022-08-27T15:18:00.902Z,8.43
2022-08-27T15:20:27.680Z,12.48
2022-08-27T15:22:56.641Z,8.20
2022-08-27T15:25:24.561Z,7.03
2022-08-27T15:27:51.156Z,6.32
2022-08-27T15:30:23.563Z,7.07
2022-08-27T15:32:50.097Z,6.07
2022-08-27T15:35:20.318Z,10.90
2022-08-27T15:37:47.156Z,6.10
2022-08-27T15:40:16.244Z,6.13
2022-08-27T15:42:42.817Z,6.20
2022-08-27T15:45:11.499Z,5.40
2022-08-27T15:47:38.031Z,6.05
2022-08-27T15:50:05.597Z,13.07
2022-08-27T15:52:40.984Z,7.13
2022-08-27T15:55:18.568Z,6.03
2022-08-27T15:57:46.164Z,6.43
2022-08-27T16:00:13.259Z,6.63
2022-08-27T16:02:42.239Z,5.50
2022-08-27T16:05:11.389Z,7.03
2022-08-27T16:07:37.785Z,5.63
2022-08-27T16:10:05.660Z,7.22
2022-08-27T16:12:32.788Z,6.30
2022-08-27T16:14:59.275Z,5.85
2022-08-27T16:17:26.472Z,7.88
2022-08-27T16:19:53.473Z,9.60
2022-08-27T16:22:20.161Z,7.55
2022-08-27T16:24:48.078Z,7.05
2022-08-27T16:27:15.111Z,6.68
2022-08-27T16:29:42.337Z,6.38
2022-08-27T16:32:14.256Z,6.38
2022-08-27T16:34:41.711Z,6.88
2022-08-27T16:37:08.515Z,7.55
2022-08-27T16:39:40.004Z,7.00
2022-08-27T16:42:10.036Z,6.22
2022-08-27T16:44:37.395Z,6.22
2022-08-27T16:47:04.753Z,6.47
2022-08-27T16:49:50.181Z,6.35
2022-08-27T16:52:16.948Z,6.00
2022-08-27T16:54:43.393Z,6.10
2022-08-27T16:57:09.961Z,5.85
2022-08-27T16:59:36.380Z,6.68
2022-08-27T17:02:02.838Z,7.07
2022-08-27T17:04:38.083Z,6.22
2022-08-27T17:07:08.894Z,6.00
2022-08-27T17:09:37.351Z,10.50
2022-08-27T17:12:05.189Z,7.00
2022-08-27T17:14:37.837Z,6.82
2022-08-27T17:17:06.162Z,5.68
2022-08-27T17:19:34.859Z,5.82
2022-08-27T17:22:03.966Z,5.90
2022-08-27T17:24:30.510Z,5.15
2022-08-27T17:26:57.514Z,5.75
2022-08-27T17:29:26.291Z,5.97
2022-08-27T17:31:53.112Z,6.60
2022-08-27T17:34:26.383Z,5.10
2022-08-27T17:36:57.581Z,5.22
2022-08-27T17:39:28.510Z,5.53
2022-08-27T17:41:56.168Z,5.68
2022-08-27T17:44:28.304Z,5.57
2022-08-27T17:46:57.871Z,6.80
2022-08-27T17:49:25.705Z,5.43
2022-08-27T17:51:59.265Z,5.25
2022-08-27T17:56:59.865Z,5.53
2022-08-27T17:59:26.744Z,5.35
2022-08-27T18:01:53.498Z,5.28
2022-08-27T18:04:20.840Z,6.10
2022-08-27T18:06:47.422Z,5.35
2022-08-27T18:09:16.323Z,5.43
2022-08-27T18:11:45.276Z,5.70
2022-08-27T18:14:12.479Z,6.18
2022-08-27T18:16:44.788Z,4.60
2022-08-27T18:19:11.588Z,5.35
2022-08-27T18:21:46.265Z,5.65
2022-08-27T18:24:13.114Z,5.00
2022-08-27T18:26:39.661Z,5.28
2022-08-27T18:29:06.242Z,5.53
2022-08-27T18:31:32.776Z,7.85
2022-08-27T18:34:00.642Z,17.35
2022-08-27T18:36:29.427Z,5.18
2022-08-27T18:38:55.940Z,12.05
2022-08-27T18:41:24.220Z,6.45
2022-08-27T18:43:51.341Z,6.65
2022-08-27T18:46:18.205Z,9.38
2022-08-27T18:48:44.932Z,8.95
2022-08-27T18:51:15.190Z,5.03
2022-08-27T18:53:44.319Z,5.70
2022-08-27T18:56:12.273Z,4.90
2022-08-27T18:58:43.660Z,4.73
2022-08-27T19:01:14.055Z,5.03
2022-08-27T19:03:47.020Z,4.55
2022-08-27T19:06:16.159Z,6.03
2022-08-27T19:08:43.463Z,10.77
2022-08-27T19:11:13.842Z,5.28
2022-08-27T19:13:41.725Z,5.88
2022-08-27T19:16:14.398Z,6.05
2022-08-27T19:18:41.775Z,5.75
2022-08-27T19:21:08.526Z,5.13
2022-08-27T19:23:36.381Z,4.68
2022-08-27T19:26:03.619Z,4.53
2022-08-27T19:28:39.718Z,4.45
2022-08-27T19:31:09.756Z,4.40
2022-08-27T19:33:36.532Z,6.03
2022-08-27T19:36:04.395Z,5.97
2022-08-27T19:38:31.777Z,4.40
2022-08-27T19:41:02.004Z,5.20
2022-08-27T19:43:36.549Z,3.97
2022-08-27T19:46:05.162Z,4.55
2022-08-27T19:48:35.584Z,4.28
2022-08-27T19:51:02.155Z,4.38
2022-08-27T19:53:39.159Z,7.43
2022-08-27T19:56:09.086Z,7.95
2022-08-27T19:58:36.185Z,10.40
2022-08-27T20:01:07.626Z,6.13
2022-08-27T20:03:35.319Z,6.22
2022-08-27T20:06:02.294Z,8.40
2022-08-27T20:08:34.569Z,9.82
2022-08-27T20:11:01.696Z,5.50
2022-08-27T20:13:33.186Z,11.63
2022-08-27T20:16:02.301Z,4.63
2022-08-27T20:18:29.376Z,3.85
2022-08-27T20:20:59.510Z,3.90
2022-08-27T20:23:32.476Z,9.80
2022-08-27T20:26:01.240Z,3.90
2022-08-27T20:28:39.491Z,4.07
2022-08-27T20:31:09.737Z,4.70
2022-08-27T20:33:36.275Z,5.68
2022-08-27T20:36:02.925Z,4.82
2022-08-27T20:38:30.572Z,14.65
2022-08-27T20:40:57.660Z,4.75
2022-08-27T20:43:24.176Z,5.03
2022-08-27T20:45:50.996Z,7.78
2022-08-27T20:48:17.778Z,4.45
2022-08-27T20:50:47.353Z,10.90
2022-08-27T20:53:13.931Z,7.57
2022-08-27T20:55:40.946Z,8.00
2022-08-27T20:58:28.233Z,4.25
2022-08-27T21:01:00.404Z,3.30
2022-08-27T21:03:29.695Z,3.63
2022-08-27T21:05:56.448Z,3.40
2022-08-27T21:08:23.424Z,4.10
2022-08-27T21:10:56.971Z,3.65
2022-08-27T21:15:54.553Z,4.20
2022-08-27T21:18:29.530Z,5.82
2022-08-27T21:21:06.865Z,4.10
2022-08-27T21:23:35.469Z,4.18
2022-08-27T21:26:04.455Z,5.97
2022-08-27T21:28:31.672Z,3.65
2022-08-27T21:30:58.219Z,3.42
2022-08-27T21:33:24.883Z,3.88
2022-08-27T21:35:52.384Z,4.60
2022-08-27T21:38:19.280Z,3.97
2022-08-27T21:40:48.833Z,3.85
2022-08-27T21:43:15.327Z,5.10
2022-08-27T21:45:43.231Z,4.07
2022-08-27T21:48:12.197Z,4.22
2022-08-27T21:50:40.101Z,3.97
2022-08-27T21:53:06.623Z,4.57
2022-08-27T21:55:33.937Z,3.78
2022-08-27T21:58:01.587Z,4.13
2022-08-27T22:00:32.542Z,3.92
2022-08-27T22:02:59.793Z,4.53
2022-08-27T22:05:26.307Z,4.13
2022-08-27T22:07:52.855Z,3.88
2022-08-27T22:10:19.485Z,3.45
2022-08-27T22:12:46.259Z,3.42
2022-08-27T22:15:12.780Z,3.28
2022-08-27T22:17:39.316Z,3.45
2022-08-27T22:20:08.764Z,4.07
2022-08-27T22:22:35.297Z,3.72
2022-08-27T22:25:01.745Z,4.40
2022-08-27T22:27:28.266Z,4.28
2022-08-27T22:29:54.715Z,3.90
2022-08-27T22:32:21.239Z,3.22
2022-08-27T22:34:47.679Z,4.05
2022-08-27T22:37:14.208Z,3.55
2022-08-27T22:39:40.615Z,3.40
2022-08-27T22:42:07.785Z,3.25
2022-08-27T22:44:34.276Z,2.90
2022-08-27T22:47:00.730Z,2.95
2022-08-27T22:49:27.070Z,3.55
2022-08-27T22:51:53.479Z,3.67
2022-08-27T22:54:19.903Z,3.15
2022-08-27T22:56:46.410Z,3.55
2022-08-27T22:59:12.874Z,3.38
2022-08-27T23:01:39.424Z,3.50
2022-08-27T23:04:06.506Z,4.18
2022-08-27T23:06:33.764Z,4.80
2022-08-27T23:09:00.860Z,3.35
2022-08-27T23:11:31.569Z,2.78
2022-08-27T23:14:01.235Z,3.50
2022-08-27T23:16:28.490Z,3.25
2022-08-27T23:18:54.929Z,3.63
2022-08-27T23:21:21.351Z,3.28
2022-08-27T23:23:47.772Z,3.35
2022-08-27T23:26:32.900Z,3.67
2022-08-27T23:28:59.295Z,3.70
2022-08-27T23:31:25.947Z,3.95
2022-08-27T23:33:53.633Z,4.00
2022-08-27T23:36:21.067Z,3.35
2022-08-27T23:38:47.712Z,3.53
2022-08-27T23:41:17.560Z,4.55
2022-08-27T23:43:44.930Z,3.22
2022-08-27T23:46:12.210Z,3.33
2022-08-27T23:48:39.367Z,3.03
2022-08-27T23:51:07.287Z,3.40
2022-08-27T23:53:34.328Z,3.30
2022-08-27T23:56:00.944Z,3.08
2022-08-27T23:58:28.171Z,3.42
